createdAt,value
2022-08-26T00:00:00.226Z,13.7
2022-08-26T00:05:00.204Z,15.1
2022-08-26T00:10:00.189Z,13.1
2022-08-26T00:15:00.193Z,15.1
2022-08-26T00:20:00.216Z,14.5
2022-08-26T00:25:00.173Z,15.5
2022-08-26T00:30:00.206Z,15.6
2022-08-26T00:35:00.205Z,13.4
2022-08-26T00:40:00.854Z,15.4
2022-08-26T00:45:00.177Z,15.6
2022-08-26T00:50:00.339Z,14.8
2022-08-26T00:55:00.155Z,17.0
2022-08-26T01:00:00.224Z,16.8
2022-08-26T01:05:00.199Z,17.2
2022-08-26T01:10:00.216Z,15.1
2022-08-26T01:15:00.208Z,19.3
2022-08-26T01:20:00.194Z,13.4
2022-08-26T01:25:00.210Z,15.1
2022-08-26T01:30:00.171Z,12.5
2022-08-26T01:35:00.213Z,11.9
2022-08-26T01:40:00.285Z,15.2
2022-08-26T01:45:00.160Z,15.2
2022-08-26T01:50:00.222Z,17.4
2022-08-26T01:55:00.151Z,13.4
2022-08-26T02:00:00.210Z,15.9
2022-08-26T02:05:00.297Z,16.2
2022-08-26T02:10:00.228Z,15.1
2022-08-26T02:15:00.182Z,15.2
2022-08-26T02:20:00.222Z,15.2
2022-08-26T02:25:00.170Z,18.0
2022-08-26T02:30:00.191Z,17.8
2022-08-26T02:35:00.194Z,15.3
2022-08-26T02:40:00.349Z,14.5
2022-08-26T02:45:00.169Z,15.1
2022-08-26T02:50:00.211Z,15.1
2022-08-26T02:55:00.211Z,16.1
2022-08-26T03:00:00.218Z,17.0
2022-08-26T03:05:02.235Z,17.5
2022-08-26T03:10:00.243Z,19.5
2022-08-26T03:15:00.446Z,14.9
2022-08-26T03:20:00.235Z,16.9
2022-08-26T03:25:00.166Z,16.6
2022-08-26T03:30:00.244Z,17.4
2022-08-26T03:35:00.222Z,17.4
2022-08-26T03:40:00.320Z,14.3
2022-08-26T03:45:00.173Z,18.9
2022-08-26T03:50:00.191Z,13.3
2022-08-26T03:55:00.226Z,15.0
2022-08-26T04:00:00.176Z,16.1
2022-08-26T04:05:00.351Z,18.9
2022-08-26T04:10:00.261Z,20.7
2022-08-26T04:15:00.202Z,17.0
2022-08-26T04:20:00.184Z,17.5
2022-08-26T04:25:00.213Z,19.0
2022-08-26T04:30:00.171Z,19.7
2022-08-26T04:35:00.733Z,21.2
2022-08-26T04:40:00.324Z,19.6
2022-08-26T04:45:00.289Z,16.8
2022-08-26T04:50:00.201Z,16.3
2022-08-26T04:55:00.209Z,18.5
2022-08-26T05:00:00.240Z,16.7
2022-08-26T05:05:00.206Z,18.4
2022-08-26T05:10:00.223Z,17.8
2022-08-26T05:15:00.357Z,18.5
2022-08-26T05:20:00.182Z,22.0
2022-08-26T05:25:00.198Z,21.0
2022-08-26T05:30:00.216Z,23.7
2022-08-26T05:35:00.182Z,36.5
2022-08-26T05:40:00.276Z,25.7
2022-08-26T05:45:00.205Z,26.2
2022-08-26T05:50:00.204Z,22.3
2022-08-26T05:55:00.202Z,18.2
2022-08-26T06:00:00.669Z,18.7
2022-08-26T06:05:00.184Z,26.1
2022-08-26T06:10:28.309Z,24.8
2022-08-26T06:15:00.193Z,29.0
2022-08-26T06:20:00.178Z,23.2
2022-08-26T06:25:00.181Z,22.5
2022-08-26T06:30:00.240Z,21.9
2022-08-26T06:35:00.212Z,40.9
2022-08-26T06:40:00.308Z,30.9
2022-08-26T06:45:00.229Z,33.9
2022-08-26T06:50:00.199Z,23.4
2022-08-26T06:55:00.215Z,21.4
2022-08-26T07:00:00.231Z,24.2
2022-08-26T07:05:00.194Z,21.1
2022-08-26T07:10:00.174Z,21.6
2022-08-26T07:15:00.358Z,21.3
2022-08-26T07:20:00.190Z,18.9
2022-08-26T07:25:00.209Z,23.8
2022-08-26T07:30:00.196Z,25.8
2022-08-26T07:35:00.221Z,17.5
2022-08-26T07:40:00.302Z,20.4
2022-08-26T07:45:00.201Z,21.9
2022-08-26T07:50:00.181Z,17.4
2022-08-26T07:55:00.214Z,22.3
2022-08-26T08:00:00.381Z,16.0
2022-08-26T08:05:00.269Z,17.8
2022-08-26T08:10:00.222Z,19.5
2022-08-26T08:15:00.375Z,24.3
2022-08-26T08:20:00.195Z,17.0
2022-08-26T08:25:00.197Z,21.4
2022-08-26T08:30:00.211Z,20.4
2022-08-26T08:35:00.228Z,20.2
2022-08-26T08:40:00.307Z,20.2
2022-08-26T08:45:00.202Z,15.8
2022-08-26T08:50:00.232Z,23.0
2022-08-26T08:55:00.189Z,16.4
2022-08-26T09:00:00.219Z,20.3
2022-08-26T09:05:00.192Z,18.6
2022-08-26T09:10:00.175Z,21.5
2022-08-26T09:15:00.210Z,21.4
2022-08-26T09:20:00.172Z,21.4
2022-08-26T09:25:00.211Z,21.3
2022-08-26T09:30:00.207Z,19.5
2022-08-26T09:35:00.220Z,17.9
2022-08-26T09:40:00.323Z,17.3
2022-08-26T09:45:00.347Z,21.6
2022-08-26T09:50:00.198Z,20.2
2022-08-26T09:55:00.188Z,21.2
2022-08-26T10:00:00.241Z,22.3
2022-08-26T10:05:09.168Z,23.5
2022-08-26T10:10:00.179Z,22.2
2022-08-26T10:15:00.267Z,20.6
2022-08-26T10:20:00.175Z,23.6
2022-08-26T10:25:00.196Z,25.1
2022-08-26T10:30:00.201Z,17.8
2022-08-26T10:35:00.213Z,20.8
2022-08-26T10:40:00.263Z,23.8
2022-08-26T10:45:00.214Z,16.3
2022-08-26T10:50:02.933Z,20.0
2022-08-26T10:55:00.199Z,22.0
2022-08-26T11:00:00.203Z,24.5
2022-08-26T11:05:00.753Z,19.9
2022-08-26T11:10:00.191Z,27.8
2022-08-26T11:15:00.208Z,24.8
2022-08-26T11:20:01.630Z,18.8
2022-08-26T11:25:00.205Z,24.9
2022-08-26T11:30:00.192Z,20.1
2022-08-26T11:35:00.421Z,22.2
2022-08-26T11:40:00.310Z,19.8
2022-08-26T11:45:03.521Z,32.4
2022-08-26T11:50:00.207Z,23.9
2022-08-26T11:55:00.191Z,21.3
2022-08-26T12:00:00.182Z,25.0
2022-08-26T12:05:00.196Z,16.7
2022-08-26T12:10:00.370Z,22.2
2022-08-26T12:15:00.196Z,19.7
2022-08-26T12:20:00.388Z,18.4
2022-08-26T12:25:00.195Z,19.6
2022-08-26T12:30:00.201Z,17.3
2022-08-26T12:35:00.314Z,18.9
2022-08-26T12:40:00.327Z,26.7
2022-08-26T12:45:00.232Z,20.1
2022-08-26T12:50:00.270Z,22.2
2022-08-26T12:55:00.224Z,23.3
2022-08-26T13:00:00.234Z,23.3
2022-08-26T13:05:00.979Z,23.8
2022-08-26T13:10:00.250Z,20.0
2022-08-26T13:15:00.206Z,20.7
2022-08-26T13:20:03.888Z,20.7
2022-08-26T13:25:00.203Z,18.6
2022-08-26T13:30:00.239Z,19.9
2022-08-26T13:35:00.192Z,21.8
2022-08-26T13:40:00.334Z,23.5
2022-08-26T13:45:00.199Z,20.2
2022-08-26T13:50:00.291Z,22.7
2022-08-26T13:55:00.612Z,29.6
2022-08-26T14:00:00.273Z,20.3
2022-08-26T14:05:00.199Z,20.2
2022-08-26T14:10:00.239Z,23.3
2022-08-26T14:15:00.213Z,24.2
2022-08-26T14:20:00.388Z,24.6
2022-08-26T14:25:00.235Z,23.9
2022-08-26T14:30:00.252Z,20.4
2022-08-26T14:35:00.207Z,31.1
2022-08-26T14:40:00.351Z,23.8
2022-08-26T14:45:00.240Z,24.4
2022-08-26T14:50:00.246Z,22.1
2022-08-26T14:55:00.227Z,22.6
2022-08-26T15:00:00.233Z,20.1
2022-08-26T15:05:00.240Z,20.6
2022-08-26T15:10:00.228Z,17.5
2022-08-26T15:15:00.215Z,17.6
2022-08-26T15:20:00.263Z,18.7
2022-08-26T15:25:00.198Z,20.9
2022-08-26T15:30:00.238Z,20.0
2022-08-26T15:35:00.210Z,16.2
2022-08-26T15:40:00.376Z,16.8
2022-08-26T15:45:00.225Z,16.8
2022-08-26T15:50:00.227Z,15.4
2022-08-26T15:55:00.255Z,15.2
2022-08-26T16:00:00.257Z,20.0
2022-08-26T16:05:00.252Z,14.9
2022-08-26T16:10:00.213Z,11.7
2022-08-26T16:15:00.228Z,12.5
2022-08-26T16:20:00.214Z,12.2
2022-08-26T16:25:00.221Z,11.4
2022-08-26T16:30:00.398Z,11.4
2022-08-26T16:35:00.222Z,10.5
2022-08-26T16:40:00.390Z,10.0
2022-08-26T16:45:00.196Z,8.5
2022-08-26T16:50:00.388Z,8.7
2022-08-26T16:55:00.225Z,8.5
2022-08-26T17:00:00.243Z,11.4
2022-08-26T17:05:00.263Z,9.3
2022-08-26T17:10:00.209Z,7.7
2022-08-26T17:15:00.245Z,13.4
2022-08-26T17:20:00.236Z,12.3
2022-08-26T17:25:00.334Z,13.8
2022-08-26T17:30:00.187Z,10.9
2022-08-26T17:35:00.193Z,12.4
2022-08-26T17:40:00.255Z,12.7
2022-08-26T17:45:00.196Z,10.4
2022-08-26T17:50:00.190Z,8.1
2022-08-26T17:55:00.218Z,9.4
2022-08-26T18:00:00.184Z,8.6
2022-08-26T18:05:00.228Z,7.2
2022-08-26T18:10:00.212Z,9.5
2022-08-26T18:15:00.195Z,13.6
2022-08-26T18:20:00.234Z,9.6
2022-08-26T18:25:00.217Z,12.7
2022-08-26T18:30:00.260Z,13.3
2022-08-26T18:35:00.205Z,17.1
2022-08-26T18:40:00.353Z,14.1
2022-08-26T18:45:00.194Z,14.9
2022-08-26T18:50:00.221Z,14.3
2022-08-26T18:55:00.192Z,18.2
2022-08-26T19:00:00.218Z,18.0
2022-08-26T19:05:00.198Z,15.2
2022-08-26T19:10:00.209Z,15.0
2022-08-26T19:15:00.228Z,16.4
2022-08-26T19:20:00.179Z,17.1
2022-08-26T19:25:00.210Z,16.3
2022-08-26T19:30:00.236Z,16.4
2022-08-26T19:35:00.223Z,14.0
2022-08-26T19:40:00.284Z,15.9
2022-08-26T19:45:00.216Z,13.9
2022-08-26T19:50:00.169Z,13.9
2022-08-26T19:55:00.194Z,15.8
2022-08-26T20:00:00.220Z,15.4
2022-08-26T20:05:00.209Z,12.4
2022-08-26T20:10:00.165Z,11.3
2022-08-26T20:15:00.194Z,15.2
2022-08-26T20:20:00.212Z,14.7
2022-08-26T20:25:00.225Z,11.9
2022-08-26T20:30:00.227Z,12.9
2022-08-26T20:35:00.241Z,16.2
2022-08-26T20:40:00.333Z,17.5
2022-08-26T20:45:00.221Z,17.5
2022-08-26T20:50:00.238Z,16.3
2022-08-26T20:55:00.231Z,15.3
2022-08-26T21:00:00.191Z,16.3
2022-08-26T21:05:00.390Z,18.4
2022-08-26T21:10:00.225Z,17.9
2022-08-26T21:15:00.203Z,18.7
2022-08-26T21:20:00.230Z,20.2
2022-08-26T21:25:00.197Z,16.7
2022-08-26T21:30:00.240Z,15.7
2022-08-26T21:35:00.218Z,15.6
2022-08-26T21:40:00.344Z,19.9
2022-08-26T21:45:00.207Z,19.4
2022-08-26T21:50:00.249Z,17.2
2022-08-26T21:55:00.216Z,16.2
2022-08-26T22:00:00.262Z,16.5
2022-08-26T22:05:00.248Z,15.6
2022-08-26T22:10:00.216Z,20.8
2022-08-26T22:15:00.230Z,19.3
2022-08-26T22:20:00.212Z,17.6
2022-08-26T22:25:00.211Z,16.9
2022-08-26T22:30:00.254Z,18.7
2022-08-26T22:35:00.191Z,19.4
2022-08-26T22:40:00.357Z,21.2
2022-08-26T22:45:00.201Z,19.1
2022-08-26T22:50:00.241Z,22.3
2022-08-26T22:55:00.226Z,17.3
2022-08-26T23:00:00.235Z,20.2
2022-08-26T23:05:00.189Z,22.9
2022-08-26T23:10:00.241Z,19.1
2022-08-26T23:15:00.200Z,15.7
2022-08-26T23:20:00.377Z,21.9
2022-08-26T23:25:00.263Z,17.3
2022-08-26T23:30:00.227Z,16.2
2022-08-26T23:35:00.195Z,21.0
2022-08-26T23:40:00.297Z,23.5
2022-08-26T23:45:00.210Z,19.2
2022-08-26T23:50:00.197Z,16.5
2022-08-26T23:55:00.230Z,16.4
